ADDS METAR Data INFO
IDs: Format: Raw Decoded Include TAF

Data at: 0350 UTC 18 Oct 2017

KCNI 180335Z AUTO 00000KT 10SM CLR 09/09 A3032 RMK AO2
KCNI 180315Z AUTO 00000KT 10SM CLR 10/10 A3032 RMK AO2
KCNI 180255Z AUTO 00000KT 10SM CLR 11/10 A3032 RMK AO2
KCNI 180235Z AUTO 00000KT 10SM CLR 10/10 A3032 RMK AO2
KCNI 180215Z AUTO 02003KT 10SM CLR 10/09 A3030 RMK AO2
KCNI 180155Z AUTO 00000KT 10SM CLR 11/10 A3030 RMK AO2
KCNI 180135Z AUTO 03003KT 10SM CLR 11/10 A3029 RMK AO2
KCNI 180115Z AUTO 00000KT 10SM CLR 12/10 A3028 RMK AO2
KCNI 180055Z AUTO 00000KT 10SM CLR 12/10 A3028 RMK AO2
KCNI 180035Z AUTO 00000KT 10SM CLR 12/10 A3028 RMK AO2
KCNI 180015Z AUTO 00000KT 10SM CLR 13/10 A3028 RMK AO2
KCNI 172355Z AUTO 00000KT 10SM CLR 13/08 A3027 RMK AO2
KCNI 172335Z AUTO 00000KT 10SM CLR 15/07 A3027 RMK AO2
KCNI 172315Z AUTO 00000KT 10SM CLR 16/08 A3027 RMK AO2
KCNI 172255Z AUTO 00000KT 10SM CLR 18/06 A3027 RMK AO2
KCNI 172235Z AUTO 00000KT 10SM CLR 20/06 A3027 RMK AO2
KCNI 172215Z AUTO 00000KT 10SM CLR 20/06 A3027 RMK AO2
KCNI 172155Z AUTO 00000KT 10SM CLR 20/05 A3027 RMK AO2
KCNI 172135Z AUTO 12003KT 10SM CLR 21/05 A3027 RMK AO2
KCNI 172115Z AUTO 00000KT 10SM CLR 20/05 A3028 RMK AO2
KCNI 172055Z AUTO 09003KT 10SM CLR 21/05 A3028 RMK AO2
KCNI 172035Z AUTO 00000KT 10SM CLR 20/05 A3028 RMK AO2
KCNI 172015Z AUTO 00000KT 10SM CLR 21/05 A3028 RMK AO2
KCNI 171955Z AUTO 00000KT 10SM CLR 21/05 A3028 RMK AO2
KCNI 171935Z AUTO 10004KT 10SM CLR 21/05 A3028 RMK AO2
KCNI 171915Z AUTO 06003KT 10SM CLR 21/05 A3028 RMK AO2
KCNI 171855Z AUTO 10004KT 10SM CLR 20/05 A3030 RMK AO2
KCNI 171835Z AUTO 07004KT 10SM CLR 20/05 A3030 RMK AO2
KCNI 171815Z AUTO 00000KT 10SM CLR 20/05 A3031 RMK AO2
KCNI 171755Z AUTO 09005KT 10SM CLR 20/05 A3032 RMK AO2
KCNI 171735Z AUTO 06006KT 10SM CLR 20/05 A3033 RMK AO2
KCNI 171715Z AUTO 03003KT 10SM CLR 19/05 A3034 RMK AO2
KCNI 171655Z AUTO 07006KT 10SM CLR 19/05 A3035 RMK AO2
KCNI 171635Z AUTO 13006KT 10SM CLR 18/05 A3035 RMK AO2
KCNI 171615Z AUTO 08006KT 10SM CLR 18/05 A3036 RMK AO2
KCNI 171555Z AUTO 07006KT 10SM CLR 17/05 A3037 RMK AO2
KCNI 171535Z AUTO 07006KT 10SM CLR 17/06 A3037 RMK AO2
KCNI 171515Z AUTO 07007G14KT 10SM CLR 16/06 A3037 RMK AO2
KCNI 171455Z AUTO 07010G17KT 10SM CLR 16/05 A3036 RMK AO2
KCNI 171435Z AUTO 07005KT 10SM CLR 15/06 A3037 RMK AO2
KCNI 171415Z AUTO 07006KT 10SM CLR 13/06 A3036 RMK AO2
KCNI 171355Z AUTO 09004KT 10SM CLR 12/06 A3036 RMK AO2
KCNI 171335Z AUTO 00000KT 10SM CLR 11/06 A3036 RMK AO2
KCNI 171315Z AUTO 00000KT 10SM CLR 10/06 A3035 RMK AO2
KCNI 171255Z AUTO 00000KT 10SM CLR 10/06 A3035 RMK AO2
KCNI 171235Z AUTO 00000KT 10SM CLR 08/06 A3034 RMK AO2
KCNI 171215Z AUTO 00000KT 10SM CLR 07/05 A3033 RMK AO2
KCNI 171155Z AUTO 00000KT 10SM CLR 07/05 A3033 RMK AO2
KCNI 171135Z AUTO 00000KT 10SM CLR 07/05 A3033 RMK AO2
KCNI 171115Z AUTO 00000KT 10SM CLR 06/04 A3032 RMK AO2
KCNI 171055Z AUTO 05003KT 10SM CLR 07/06 A3030 RMK AO2
KCNI 171035Z AUTO 00000KT 10SM CLR 08/06 A3030 RMK AO2
KCNI 171015Z AUTO 00000KT 10SM CLR 06/06 A3030 RMK AO2
KCNI 170955Z AUTO 00000KT 10SM CLR 06/06 A3029 RMK AO2
KCNI 170935Z AUTO 00000KT 10SM CLR 06/06 A3029 RMK AO2
KCNI 170915Z AUTO 00000KT 10SM CLR 06/05 A3028 RMK AO2
KCNI 170855Z AUTO 00000KT 10SM CLR 07/07 A3028 RMK AO2
KCNI 170835Z AUTO 00000KT 10SM CLR 07/07 A3028 RMK AO2
KCNI 170815Z AUTO 00000KT 10SM CLR 06/06 A3027 RMK AO2
KCNI 170755Z AUTO 00000KT 10SM CLR 07/07 A3027 RMK AO2
KCNI 170735Z AUTO 00000KT 10SM CLR 07/07 A3027 RMK AO2
KCNI 170715Z AUTO 00000KT 10SM CLR 07/07 A3027 RMK AO2
KCNI 170655Z AUTO 00000KT 10SM CLR 07/07 A3027 RMK AO2
KCNI 170635Z AUTO 00000KT 10SM CLR 09/07 A3026 RMK AO2
KCNI 170615Z AUTO 00000KT 10SM CLR 08/08 A3027 RMK AO2
KCNI 170555Z AUTO 00000KT 10SM CLR 07/07 A3027 RMK AO2
KCNI 170535Z AUTO 00000KT 10SM CLR 08/08 A3026 RMK AO2
KCNI 170515Z AUTO 00000KT 10SM CLR 08/07 A3026 RMK AO2
KCNI 170455Z AUTO 00000KT 10SM CLR 08/07 A3026 RMK AO2
KCNI 170435Z AUTO 00000KT 10SM CLR 10/08 A3026 RMK AO2
KCNI 170415Z AUTO 00000KT 10SM CLR 11/07 A3025 RMK AO2
KCNI 170355Z AUTO 00000KT 10SM CLR 11/07 A3025 RMK AO2
KCNI 170335Z AUTO 00000KT 10SM CLR 10/07 A3025 RMK AO2
KCNI 170315Z AUTO 00000KT 10SM CLR 12/07 A3025 RMK AO2
KCNI 170255Z AUTO 00000KT 10SM CLR 12/07 A3025 RMK AO2
KCNI 170235Z AUTO 00000KT 10SM CLR 12/07 A3024 RMK AO2
KCNI 170215Z AUTO 00000KT 10SM CLR 12/07 A3023 RMK AO2
KCNI 170155Z AUTO 02003KT 10SM CLR 13/07 A3023 RMK AO2
KCNI 170135Z AUTO 00000KT 10SM CLR 13/07 A3022 RMK AO2
KCNI 170115Z AUTO 00000KT 10SM CLR 13/07 A3021 RMK AO2
KCNI 170055Z AUTO 34005KT 10SM CLR 13/07 A3020 RMK AO2
KCNI 170035Z AUTO 33004KT 10SM CLR 13/07 A3018 RMK AO2
KCNI 170015Z AUTO 32004KT 10SM CLR 13/07 A3017 RMK AO2
KCNI 162355Z AUTO 32007KT 290V010 10SM CLR 13/07 A3016 RMK AO2
KCNI 162335Z AUTO 33007G17KT 300V020 10SM CLR 14/07 A3016 RMK AO2
KCNI 162315Z AUTO 31008KT 10SM CLR 14/07 A3016 RMK AO2
KCNI 162255Z AUTO 32004KT 10SM CLR 15/07 A3016 RMK AO2
KCNI 162235Z AUTO 32003KT 10SM CLR 16/07 A3016 RMK AO2
KCNI 162215Z AUTO 32007KT 10SM CLR 17/07 A3015 RMK AO2
KCNI 162155Z AUTO 32007G17KT 10SM CLR 18/07 A3014 RMK AO2
KCNI 162135Z AUTO 32009KT 10SM CLR 18/07 A3014 RMK AO2
KCNI 162115Z AUTO 34008G14KT 300V020 10SM CLR 19/07 A3013 RMK AO2
KCNI 162055Z AUTO 32009G21KT 290V020 10SM CLR 19/07 A3014 RMK AO2
KCNI 162035Z AUTO 31006KT 10SM CLR 19/08 A3013 RMK AO2
KCNI 162015Z AUTO 32009KT 290V360 10SM CLR 20/09 A3014 RMK AO2
KCNI 161955Z AUTO 32008G14KT 290V360 10SM CLR 20/09 A3013 RMK AO2
KCNI 161935Z AUTO 31008G14KT 10SM CLR 20/09 A3013 RMK AO2
KCNI 161915Z AUTO 32011G20KT 290V350 10SM CLR 19/08 A3013 RMK AO2
KCNI 161855Z AUTO 32008G15KT 10SM CLR 19/09 A3013 RMK AO2
KCNI 161835Z AUTO 32009G16KT 10SM CLR 19/09 A3014 RMK AO2
KCNI 161815Z AUTO 32010G16KT 10SM CLR 18/08 A3015 RMK AO2
KCNI 161755Z AUTO 33006G14KT 10SM CLR 18/10 A3015 RMK AO2
KCNI 161735Z AUTO 33008KT 300V010 10SM CLR 18/10 A3016 RMK AO2
KCNI 161715Z AUTO 32007G14KT 280V350 10SM CLR 17/10 A3017 RMK AO2
KCNI 161655Z AUTO 31007G14KT 10SM CLR 16/10 A3017 RMK AO2
KCNI 161635Z AUTO 31011G16KT 290V020 10SM CLR 16/10 A3017 RMK AO2
KCNI 161615Z AUTO 31010G19KT 10SM CLR 16/09 A3017 RMK AO2
KCNI 161555Z AUTO 30010G16KT 250V330 10SM CLR 16/10 A3017 RMK AO2